Terminal Aerodrome Forecast
Issued by NWS Tulsa, OK

Home | Current Version | Previous Version | Text Only | Print | Product List | Glossary On
Versions: 1 2 3 4 5 6 7 8 9 10 11 12 13 14 15 16 17
374
FTUS44 KTSA 231720
TAFTUL
TAF
KTUL 231720Z 2318/2418 28012KT P6SM BKN250
     FM231900 32012G21KT P6SM BKN250
     FM240100 31010KT P6SM SKC
     FM241500 33016G24KT P6SM SCT250=

USA.gov is the U.S. government's official web portal to all federal, state and local government web resources and services.